sensor_id;sensor_type;location;lat;lon;timestamp;temperature;humidity
43772;HTU21D;59066;54.782;32.024;2023-06-26T00:01:41;17.29;80.17
43772;HTU21D;59066;54.782;32.024;2023-06-26T00:04:09;17.30;80.14
43772;HTU21D;59066;54.782;32.024;2023-06-26T00:06:41;17.36;79.98
43772;HTU21D;59066;54.782;32.024;2023-06-26T00:09:09;17.47;79.73
43772;HTU21D;59066;54.782;32.024;2023-06-26T00:11:36;17.52;79.43
43772;HTU21D;59066;54.782;32.024;2023-06-26T00:14:04;17.52;79.03
43772;HTU21D;59066;54.782;32.024;2023-06-26T00:16:32;17.43;79.08
43772;HTU21D;59066;54.782;32.024;2023-06-26T00:18:59;17.32;79.55
43772;HTU21D;59066;54.782;32.024;2023-06-26T00:21:27;17.30;79.75
43772;HTU21D;59066;54.782;32.024;2023-06-26T00:23:55;17.29;79.91
43772;HTU21D;59066;54.782;32.024;2023-06-26T00:26:22;17.33;79.89
43772;HTU21D;59066;54.782;32.024;2023-06-26T00:28:53;17.33;80.02
43772;HTU21D;59066;54.782;32.024;2023-06-26T00:31:21;17.31;80.15
43772;HTU21D;59066;54.782;32.024;2023-06-26T00:33:48;17.31;80.13
43772;HTU21D;59066;54.782;32.024;2023-06-26T00:36:16;17.28;80.19
43772;HTU21D;59066;54.782;32.024;2023-06-26T00:38:43;17.29;80.23
43772;HTU21D;59066;54.782;32.024;2023-06-26T00:41:11;17.37;80.20
43772;HTU21D;59066;54.782;32.024;2023-06-26T00:43:40;17.37;80.29
43772;HTU21D;59066;54.782;32.024;2023-06-26T00:46:12;17.37;80.26
43772;HTU21D;59066;54.782;32.024;2023-06-26T00:48:43;17.37;80.10
43772;HTU21D;59066;54.782;32.024;2023-06-26T00:51:12;17.39;80.08
43772;HTU21D;59066;54.782;32.024;2023-06-26T00:53:40;17.40;80.11
43772;HTU21D;59066;54.782;32.024;2023-06-26T00:56:08;17.37;80.02
43772;HTU21D;59066;54.782;32.024;2023-06-26T00:58:35;17.31;80.04
43772;HTU21D;59066;54.782;32.024;2023-06-26T01:01:11;17.26;79.99
43772;HTU21D;59066;54.782;32.024;2023-06-26T01:03:48;17.31;80.01
43772;HTU21D;59066;54.782;32.024;2023-06-26T01:06:22;17.41;79.79
43772;HTU21D;59066;54.782;32.024;2023-06-26T01:08:51;17.51;79.54
43772;HTU21D;59066;54.782;32.024;2023-06-26T01:11:18;17.60;79.38
43772;HTU21D;59066;54.782;32.024;2023-06-26T01:13:46;17.66;79.25
43772;HTU21D;59066;54.782;32.024;2023-06-26T01:16:15;17.76;79.20
43772;HTU21D;59066;54.782;32.024;2023-06-26T01:18:46;17.76;79.31
43772;HTU21D;59066;54.782;32.024;2023-06-26T01:21:17;17.74;79.36
43772;HTU21D;59066;54.782;32.024;2023-06-26T01:24:07;17.76;79.52
43772;HTU21D;59066;54.782;32.024;2023-06-26T01:26:39;17.76;79.62
43772;HTU21D;59066;54.782;32.024;2023-06-26T01:29:07;17.77;79.66
43772;HTU21D;59066;54.782;32.024;2023-06-26T01:31:37;17.79;79.85
43772;HTU21D;59066;54.782;32.024;2023-06-26T01:34:05;17.73;80.07
43772;HTU21D;59066;54.782;32.024;2023-06-26T01:36:33;17.69;80.34
43772;HTU21D;59066;54.782;32.024;2023-06-26T01:39:04;17.67;80.59
43772;HTU21D;59066;54.782;32.024;2023-06-26T01:41:32;17.74;80.79
43772;HTU21D;59066;54.782;32.024;2023-06-26T01:46:46;17.70;80.80
43772;HTU21D;59066;54.782;32.024;2023-06-26T01:52:07;17.66;81.23
43772;HTU21D;59066;54.782;32.024;2023-06-26T01:54:46;17.60;81.27
43772;HTU21D;59066;54.782;32.024;2023-06-26T01:57:17;17.51;81.34
43772;HTU21D;59066;54.782;32.024;2023-06-26T01:59:47;17.43;81.72
43772;HTU21D;59066;54.782;32.024;2023-06-26T02:02:14;17.43;81.97
43772;HTU21D;59066;54.782;32.024;2023-06-26T02:04:42;17.39;81.97
43772;HTU21D;59066;54.782;32.024;2023-06-26T02:07:10;17.38;82.07
43772;HTU21D;59066;54.782;32.024;2023-06-26T02:09:37;17.32;82.17
43772;HTU21D;59066;54.782;32.024;2023-06-26T02:12:05;17.25;82.38
43772;HTU21D;59066;54.782;32.024;2023-06-26T02:14:32;17.21;82.52
43772;HTU21D;59066;54.782;32.024;2023-06-26T02:17:00;17.14;82.71
43772;HTU21D;59066;54.782;32.024;2023-06-26T02:19:27;17.11;82.62
43772;HTU21D;59066;54.782;32.024;2023-06-26T02:21:55;17.09;82.69
43772;HTU21D;59066;54.782;32.024;2023-06-26T02:24:23;17.00;82.99
43772;HTU21D;59066;54.782;32.024;2023-06-26T02:26:51;17.01;83.30
43772;HTU21D;59066;54.782;32.024;2023-06-26T02:29:18;17.01;83.21
43772;HTU21D;59066;54.782;32.024;2023-06-26T02:31:45;16.95;83.26
43772;HTU21D;59066;54.782;32.024;2023-06-26T02:34:13;16.91;83.42
43772;HTU21D;59066;54.782;32.024;2023-06-26T02:36:40;16.88;83.58
43772;HTU21D;59066;54.782;32.024;2023-06-26T02:39:08;16.75;83.35
43772;HTU21D;59066;54.782;32.024;2023-06-26T02:41:35;16.69;83.45
43772;HTU21D;59066;54.782;32.024;2023-06-26T02:44:03;16.65;83.37
43772;HTU21D;59066;54.782;32.024;2023-06-26T02:46:31;16.65;83.43
43772;HTU21D;59066;54.782;32.024;2023-06-26T02:48:59;16.62;83.24
43772;HTU21D;59066;54.782;32.024;2023-06-26T02:51:27;16.62;83.35
43772;HTU21D;59066;54.782;32.024;2023-06-26T02:53:56;16.63;83.44
43772;HTU21D;59066;54.782;32.024;2023-06-26T02:56:23;16.65;83.55
43772;HTU21D;59066;54.782;32.024;2023-06-26T02:58:51;16.72;83.61
43772;HTU21D;59066;54.782;32.024;2023-06-26T03:01:18;16.84;83.62
43772;HTU21D;59066;54.782;32.024;2023-06-26T03:03:48;16.96;83.50
43772;HTU21D;59066;54.782;32.024;2023-06-26T03:06:17;17.03;83.28
43772;HTU21D;59066;54.782;32.024;2023-06-26T03:08:44;17.05;83.07
43772;HTU21D;59066;54.782;32.024;2023-06-26T03:11:14;17.04;82.90
43772;HTU21D;59066;54.782;32.024;2023-06-26T03:13:41;16.98;82.79
43772;HTU21D;59066;54.782;32.024;2023-06-26T03:16:08;16.94;82.71
43772;HTU21D;59066;54.782;32.024;2023-06-26T03:18:36;16.91;82.69
43772;HTU21D;59066;54.782;32.024;2023-06-26T03:21:05;16.85;82.52
43772;HTU21D;59066;54.782;32.024;2023-06-26T03:23:33;16.82;82.55
43772;HTU21D;59066;54.782;32.024;2023-06-26T03:26:01;16.85;82.46
43772;HTU21D;59066;54.782;32.024;2023-06-26T03:28:31;16.89;82.49
43772;HTU21D;59066;54.782;32.024;2023-06-26T03:30:58;16.95;82.42
43772;HTU21D;59066;54.782;32.024;2023-06-26T03:33:26;16.95;82.29
43772;HTU21D;59066;54.782;32.024;2023-06-26T03:35:54;16.91;82.19
43772;HTU21D;59066;54.782;32.024;2023-06-26T03:38:22;16.92;82.31
43772;HTU21D;59066;54.782;32.024;2023-06-26T03:40:55;17.00;82.43
43772;HTU21D;59066;54.782;32.024;2023-06-26T03:43:23;17.15;82.07
43772;HTU21D;59066;54.782;32.024;2023-06-26T03:46:13;17.24;82.04
43772;HTU21D;59066;54.782;32.024;2023-06-26T03:48:41;17.31;82.04
43772;HTU21D;59066;54.782;32.024;2023-06-26T03:51:08;17.40;82.12
43772;HTU21D;59066;54.782;32.024;2023-06-26T03:53:37;17.54;82.18
43772;HTU21D;59066;54.782;32.024;2023-06-26T03:56:04;17.66;81.96
43772;HTU21D;59066;54.782;32.024;2023-06-26T03:58:32;17.78;81.62
43772;HTU21D;59066;54.782;32.024;2023-06-26T04:00:59;17.89;81.34
43772;HTU21D;59066;54.782;32.024;2023-06-26T04:03:29;17.84;81.26
43772;HTU21D;59066;54.782;32.024;2023-06-26T04:05:56;17.79;81.40
43772;HTU21D;59066;54.782;32.024;2023-06-26T04:08:24;17.78;81.78
43772;HTU21D;59066;54.782;32.024;2023-06-26T04:10:55;17.85;81.94
43772;HTU21D;59066;54.782;32.024;2023-06-26T04:13:25;17.92;81.88
43772;HTU21D;59066;54.782;32.024;2023-06-26T04:15:55;17.98;81.46
43772;HTU21D;59066;54.782;32.024;2023-06-26T04:18:23;17.96;81.36
43772;HTU21D;59066;54.782;32.024;2023-06-26T04:21:11;17.98;81.27
43772;HTU21D;59066;54.782;32.024;2023-06-26T04:23:40;17.98;81.37
43772;HTU21D;59066;54.782;32.024;2023-06-26T04:26:08;18.07;81.04
43772;HTU21D;59066;54.782;32.024;2023-06-26T04:28:36;18.11;80.78
43772;HTU21D;59066;54.782;32.024;2023-06-26T04:31:03;18.15;80.37
43772;HTU21D;59066;54.782;32.024;2023-06-26T04:33:31;18.21;80.13
43772;HTU21D;59066;54.782;32.024;2023-06-26T04:35:58;18.29;79.55
43772;HTU21D;59066;54.782;32.024;2023-06-26T04:38:32;18.35;78.88
43772;HTU21D;59066;54.782;32.024;2023-06-26T04:41:01;18.39;78.72
43772;HTU21D;59066;54.782;32.024;2023-06-26T04:43:28;18.41;78.80
43772;HTU21D;59066;54.782;32.024;2023-06-26T04:45:56;18.44;78.59
43772;HTU21D;59066;54.782;32.024;2023-06-26T04:48:23;18.41;78.60
43772;HTU21D;59066;54.782;32.024;2023-06-26T04:50:51;18.42;78.47
43772;HTU21D;59066;54.782;32.024;2023-06-26T04:53:22;18.46;78.34
43772;HTU21D;59066;54.782;32.024;2023-06-26T04:55:57;18.47;77.92
43772;HTU21D;59066;54.782;32.024;2023-06-26T04:58:25;18.54;77.72
43772;HTU21D;59066;54.782;32.024;2023-06-26T05:00:52;18.57;77.26
43772;HTU21D;59066;54.782;32.024;2023-06-26T05:03:20;18.59;76.79
43772;HTU21D;59066;54.782;32.024;2023-06-26T05:05:47;18.50;76.89
43772;HTU21D;59066;54.782;32.024;2023-06-26T05:08:21;18.42;77.88
43772;HTU21D;59066;54.782;32.024;2023-06-26T05:10:49;18.40;78.18
43772;HTU21D;59066;54.782;32.024;2023-06-26T05:13:17;18.41;78.35
43772;HTU21D;59066;54.782;32.024;2023-06-26T05:15:46;18.51;78.56
43772;HTU21D;59066;54.782;32.024;2023-06-26T05:18:14;18.58;78.30
43772;HTU21D;59066;54.782;32.024;2023-06-26T05:20:41;18.76;78.22
43772;HTU21D;59066;54.782;32.024;2023-06-26T05:23:11;19.01;77.55
43772;HTU21D;59066;54.782;32.024;2023-06-26T05:25:40;19.14;76.69
43772;HTU21D;59066;54.782;32.024;2023-06-26T05:28:08;19.26;76.38
43772;HTU21D;59066;54.782;32.024;2023-06-26T05:30:37;19.37;76.56
43772;HTU21D;59066;54.782;32.024;2023-06-26T05:33:05;19.39;76.09
43772;HTU21D;59066;54.782;32.024;2023-06-26T05:35:34;19.45;75.44
43772;HTU21D;59066;54.782;32.024;2023-06-26T05:38:02;19.60;75.09
43772;HTU21D;59066;54.782;32.024;2023-06-26T05:40:30;19.84;74.25
43772;HTU21D;59066;54.782;32.024;2023-06-26T05:42:58;19.97;73.02
43772;HTU21D;59066;54.782;32.024;2023-06-26T05:45:25;20.10;72.59
43772;HTU21D;59066;54.782;32.024;2023-06-26T05:47:53;20.21;72.00
43772;HTU21D;59066;54.782;32.024;2023-06-26T05:50:20;20.20;71.29
43772;HTU21D;59066;54.782;32.024;2023-06-26T05:52:48;20.26;71.31
43772;HTU21D;59066;54.782;32.024;2023-06-26T05:55:16;20.34;70.90
43772;HTU21D;59066;54.782;32.024;2023-06-26T05:57:45;20.55;70.65
43772;HTU21D;59066;54.782;32.024;2023-06-26T06:00:13;20.70;69.65
43772;HTU21D;59066;54.782;32.024;2023-06-26T06:02:42;20.80;69.17
43772;HTU21D;59066;54.782;32.024;2023-06-26T06:05:10;20.94;68.27
43772;HTU21D;59066;54.782;32.024;2023-06-26T06:07:37;21.01;67.89
43772;HTU21D;59066;54.782;32.024;2023-06-26T06:10:05;21.08;67.17
43772;HTU21D;59066;54.782;32.024;2023-06-26T06:12:32;21.19;66.51
43772;HTU21D;59066;54.782;32.024;2023-06-26T06:15:00;21.23;66.07
43772;HTU21D;59066;54.782;32.024;2023-06-26T06:17:27;21.20;66.41
43772;HTU21D;59066;54.782;32.024;2023-06-26T06:19:55;21.24;66.17
43772;HTU21D;59066;54.782;32.024;2023-06-26T06:22:23;21.29;65.46
43772;HTU21D;59066;54.782;32.024;2023-06-26T06:24:50;21.25;65.11
43772;HTU21D;59066;54.782;32.024;2023-06-26T06:27:18;21.25;64.77
43772;HTU21D;59066;54.782;32.024;2023-06-26T06:29:45;21.42;64.46
43772;HTU21D;59066;54.782;32.024;2023-06-26T06:32:13;21.55;63.92
43772;HTU21D;59066;54.782;32.024;2023-06-26T06:34:40;21.66;63.16
43772;HTU21D;59066;54.782;32.024;2023-06-26T06:37:08;21.76;62.64
43772;HTU21D;59066;54.782;32.024;2023-06-26T06:39:35;21.90;62.02
43772;HTU21D;59066;54.782;32.024;2023-06-26T06:42:03;22.03;61.50
43772;HTU21D;59066;54.782;32.024;2023-06-26T06:44:32;22.12;61.22
43772;HTU21D;59066;54.782;32.024;2023-06-26T06:46:59;22.19;60.64
43772;HTU21D;59066;54.782;32.024;2023-06-26T06:49:27;22.26;60.44
43772;HTU21D;59066;54.782;32.024;2023-06-26T06:51:54;22.32;60.26
43772;HTU21D;59066;54.782;32.024;2023-06-26T06:54:21;22.43;59.96
43772;HTU21D;59066;54.782;32.024;2023-06-26T06:56:49;22.49;59.55
43772;HTU21D;59066;54.782;32.024;2023-06-26T06:59:16;22.52;59.18
43772;HTU21D;59066;54.782;32.024;2023-06-26T07:01:44;22.51;59.02
43772;HTU21D;59066;54.782;32.024;2023-06-26T07:04:11;22.56;59.02
43772;HTU21D;59066;54.782;32.024;2023-06-26T07:06:39;22.63;58.50
43772;HTU21D;59066;54.782;32.024;2023-06-26T07:09:06;22.70;58.36
43772;HTU21D;59066;54.782;32.024;2023-06-26T07:11:34;22.75;58.26
43772;HTU21D;59066;54.782;32.024;2023-06-26T07:14:01;22.86;58.22
43772;HTU21D;59066;54.782;32.024;2023-06-26T07:16:28;22.97;57.90
43772;HTU21D;59066;54.782;32.024;2023-06-26T07:18:56;23.05;57.65
43772;HTU21D;59066;54.782;32.024;2023-06-26T07:21:24;23.15;57.43
43772;HTU21D;59066;54.782;32.024;2023-06-26T07:23:52;23.23;57.21
43772;HTU21D;59066;54.782;32.024;2023-06-26T07:26:20;23.28;56.93
43772;HTU21D;59066;54.782;32.024;2023-06-26T07:29:01;23.26;56.61
43772;HTU21D;59066;54.782;32.024;2023-06-26T07:31:29;23.26;56.18
43772;HTU21D;59066;54.782;32.024;2023-06-26T07:33:56;23.09;56.13
43772;HTU21D;59066;54.782;32.024;2023-06-26T07:36:24;23.01;56.17
43772;HTU21D;59066;54.782;32.024;2023-06-26T07:38:51;22.80;56.51
43772;HTU21D;59066;54.782;32.024;2023-06-26T07:41:18;22.67;57.13
43772;HTU21D;59066;54.782;32.024;2023-06-26T07:43:46;22.52;57.42
43772;HTU21D;59066;54.782;32.024;2023-06-26T07:46:13;22.51;57.99
43772;HTU21D;59066;54.782;32.024;2023-06-26T07:48:41;22.52;58.22
43772;HTU21D;59066;54.782;32.024;2023-06-26T07:51:08;22.55;58.38
43772;HTU21D;59066;54.782;32.024;2023-06-26T07:53:36;22.66;58.56
43772;HTU21D;59066;54.782;32.024;2023-06-26T07:56:03;22.77;58.74
43772;HTU21D;59066;54.782;32.024;2023-06-26T07:58:31;22.92;58.80
43772;HTU21D;59066;54.782;32.024;2023-06-26T08:00:58;23.08;58.81
43772;HTU21D;59066;54.782;32.024;2023-06-26T08:03:26;23.26;58.61
43772;HTU21D;59066;54.782;32.024;2023-06-26T08:06:01;23.32;58.61
43772;HTU21D;59066;54.782;32.024;2023-06-26T08:08:28;23.37;58.75
43772;HTU21D;59066;54.782;32.024;2023-06-26T08:10:56;23.49;58.58
43772;HTU21D;59066;54.782;32.024;2023-06-26T08:13:23;23.57;58.45
43772;HTU21D;59066;54.782;32.024;2023-06-26T08:15:51;23.60;58.27
43772;HTU21D;59066;54.782;32.024;2023-06-26T08:18:18;23.66;57.92
43772;HTU21D;59066;54.782;32.024;2023-06-26T08:20:46;23.84;57.35
43772;HTU21D;59066;54.782;32.024;2023-06-26T08:23:14;23.99;56.95
43772;HTU21D;59066;54.782;32.024;2023-06-26T08:25:41;24.11;56.51
43772;HTU21D;59066;54.782;32.024;2023-06-26T08:28:09;24.13;56.15
43772;HTU21D;59066;54.782;32.024;2023-06-26T08:30:36;24.18;56.07
43772;HTU21D;59066;54.782;32.024;2023-06-26T08:33:04;24.15;55.98
43772;HTU21D;59066;54.782;32.024;2023-06-26T08:35:31;24.12;56.18
43772;HTU21D;59066;54.782;32.024;2023-06-26T08:37:59;24.06;56.18
43772;HTU21D;59066;54.782;32.024;2023-06-26T08:40:26;23.96;56.30
43772;HTU21D;59066;54.782;32.024;2023-06-26T08:42:54;23.80;56.34
43772;HTU21D;59066;54.782;32.024;2023-06-26T08:45:22;23.49;57.19
43772;HTU21D;59066;54.782;32.024;2023-06-26T08:47:52;23.41;57.67
43772;HTU21D;59066;54.782;32.024;2023-06-26T08:50:23;23.38;57.55
43772;HTU21D;59066;54.782;32.024;2023-06-26T08:54:03;23.45;57.96
43772;HTU21D;59066;54.782;32.024;2023-06-26T08:56:07;23.58;58.05
43772;HTU21D;59066;54.782;32.024;2023-06-26T08:58:36;23.75;57.57
43772;HTU21D;59066;54.782;32.024;2023-06-26T09:01:07;23.74;57.96
43772;HTU21D;59066;54.782;32.024;2023-06-26T09:03:35;23.91;58.08
43772;HTU21D;59066;54.782;32.024;2023-06-26T09:06:03;24.09;57.96
43772;HTU21D;59066;54.782;32.024;2023-06-26T09:08:30;23.98;57.27
43772;HTU21D;59066;54.782;32.024;2023-06-26T09:10:58;24.14;57.00
43772;HTU21D;59066;54.782;32.024;2023-06-26T09:13:28;24.26;55.98
43772;HTU21D;59066;54.782;32.024;2023-06-26T09:15:56;24.09;56.29
43772;HTU21D;59066;54.782;32.024;2023-06-26T09:18:24;24.27;55.20
43772;HTU21D;59066;54.782;32.024;2023-06-26T09:20:52;24.33;54.89
43772;HTU21D;59066;54.782;32.024;2023-06-26T09:23:21;24.25;54.87
43772;HTU21D;59066;54.782;32.024;2023-06-26T09:25:51;24.21;53.81
43772;HTU21D;59066;54.782;32.024;2023-06-26T09:28:19;24.01;54.03
43772;HTU21D;59066;54.782;32.024;2023-06-26T09:30:46;24.10;53.59
43772;HTU21D;59066;54.782;32.024;2023-06-26T09:33:19;24.23;53.51
43772;HTU21D;59066;54.782;32.024;2023-06-26T09:35:47;24.39;53.09
43772;HTU21D;59066;54.782;32.024;2023-06-26T09:38:15;24.42;52.47
43772;HTU21D;59066;54.782;32.024;2023-06-26T09:40:42;24.36;52.13
43772;HTU21D;59066;54.782;32.024;2023-06-26T09:43:13;24.34;51.73
43772;HTU21D;59066;54.782;32.024;2023-06-26T09:45:41;24.14;52.17
43772;HTU21D;59066;54.782;32.024;2023-06-26T09:48:08;24.08;52.84
43772;HTU21D;59066;54.782;32.024;2023-06-26T09:50:36;24.27;52.73
43772;HTU21D;59066;54.782;32.024;2023-06-26T09:53:12;24.44;52.43
43772;HTU21D;59066;54.782;32.024;2023-06-26T09:55:42;24.47;52.27
43772;HTU21D;59066;54.782;32.024;2023-06-26T09:58:11;24.35;52.33
43772;HTU21D;59066;54.782;32.024;2023-06-26T10:00:42;24.17;52.63
43772;HTU21D;59066;54.782;32.024;2023-06-26T10:03:11;23.96;53.34
43772;HTU21D;59066;54.782;32.024;2023-06-26T10:05:40;24.03;53.73
43772;HTU21D;59066;54.782;32.024;2023-06-26T10:08:08;24.24;53.43
43772;HTU21D;59066;54.782;32.024;2023-06-26T10:10:37;24.36;53.23
43772;HTU21D;59066;54.782;32.024;2023-06-26T10:13:24;24.25;53.02
43772;HTU21D;59066;54.782;32.024;2023-06-26T10:15:54;24.00;53.02
43772;HTU21D;59066;54.782;32.024;2023-06-26T10:18:24;23.81;53.41
43772;HTU21D;59066;54.782;32.024;2023-06-26T10:20:55;23.67;53.69
43772;HTU21D;59066;54.782;32.024;2023-06-26T10:23:25;23.53;53.65
43772;HTU21D;59066;54.782;32.024;2023-06-26T10:25:55;23.44;54.30
43772;HTU21D;59066;54.782;32.024;2023-06-26T10:28:28;23.68;54.14
43772;HTU21D;59066;54.782;32.024;2023-06-26T10:30:58;23.77;53.75
43772;HTU21D;59066;54.782;32.024;2023-06-26T10:33:27;23.74;53.25
43772;HTU21D;59066;54.782;32.024;2023-06-26T10:36:15;23.80;52.33
43772;HTU21D;59066;54.782;32.024;2023-06-26T10:38:51;23.94;52.44
43772;HTU21D;59066;54.782;32.024;2023-06-26T10:41:23;24.11;52.62
43772;HTU21D;59066;54.782;32.024;2023-06-26T10:43:51;24.23;52.43
43772;HTU21D;59066;54.782;32.024;2023-06-26T10:46:33;24.39;52.41
43772;HTU21D;59066;54.782;32.024;2023-06-26T10:49:02;24.57;52.04
43772;HTU21D;59066;54.782;32.024;2023-06-26T10:51:31;24.69;51.62
43772;HTU21D;59066;54.782;32.024;2023-06-26T10:54:00;24.77;51.33
43772;HTU21D;59066;54.782;32.024;2023-06-26T10:56:45;24.84;51.03
43772;HTU21D;59066;54.782;32.024;2023-06-26T10:59:20;24.83;51.22
43772;HTU21D;59066;54.782;32.024;2023-06-26T11:02:06;24.73;51.81
43772;HTU21D;59066;54.782;32.024;2023-06-26T11:04:40;24.74;51.74
43772;HTU21D;59066;54.782;32.024;2023-06-26T11:07:22;24.61;50.55
43772;HTU21D;59066;54.782;32.024;2023-06-26T11:12:38;24.82;46.74
43772;HTU21D;59066;54.782;32.024;2023-06-26T11:15:14;24.90;46.07
43772;HTU21D;59066;54.782;32.024;2023-06-26T11:17:42;25.06;46.12
43772;HTU21D;59066;54.782;32.024;2023-06-26T11:20:14;25.30;43.12
43772;HTU21D;59066;54.782;32.024;2023-06-26T11:22:43;25.62;43.41
43772;HTU21D;59066;54.782;32.024;2023-06-26T11:25:11;26.10;42.19
43772;HTU21D;59066;54.782;32.024;2023-06-26T11:27:39;26.56;41.45
43772;HTU21D;59066;54.782;32.024;2023-06-26T11:30:08;27.13;40.70
43772;HTU21D;59066;54.782;32.024;2023-06-26T11:32:39;28.17;39.56
43772;HTU21D;59066;54.782;32.024;2023-06-26T11:35:07;28.83;38.00
43772;HTU21D;59066;54.782;32.024;2023-06-26T11:37:36;29.87;36.82
43772;HTU21D;59066;54.782;32.024;2023-06-26T11:40:20;30.97;32.42
43772;HTU21D;59066;54.782;32.024;2023-06-26T11:42:48;31.60;33.16
43772;HTU21D;59066;54.782;32.024;2023-06-26T11:45:16;31.70;31.54
43772;HTU21D;59066;54.782;32.024;2023-06-26T11:47:43;31.09;31.17
43772;HTU21D;59066;54.782;32.024;2023-06-26T11:50:20;30.67;29.72
43772;HTU21D;59066;54.782;32.024;2023-06-26T11:53:02;30.35;30.64
43772;HTU21D;59066;54.782;32.024;2023-06-26T11:55:41;29.85;34.83
43772;HTU21D;59066;54.782;32.024;2023-06-26T11:58:10;29.08;36.35
43772;HTU21D;59066;54.782;32.024;2023-06-26T12:00:43;28.58;38.49
43772;HTU21D;59066;54.782;32.024;2023-06-26T12:03:12;27.69;39.55
43772;HTU21D;59066;54.782;32.024;2023-06-26T12:05:39;27.05;40.65
43772;HTU21D;59066;54.782;32.024;2023-06-26T12:08:08;26.13;43.12
43772;HTU21D;59066;54.782;32.024;2023-06-26T12:10:35;25.49;44.89
43772;HTU21D;59066;54.782;32.024;2023-06-26T12:13:03;24.99;45.93
43772;HTU21D;59066;54.782;32.024;2023-06-26T12:15:31;24.42;47.49
43772;HTU21D;59066;54.782;32.024;2023-06-26T12:17:59;23.73;49.68
43772;HTU21D;59066;54.782;32.024;2023-06-26T12:20:26;23.23;51.27
43772;HTU21D;59066;54.782;32.024;2023-06-26T12:22:58;22.86;52.38
43772;HTU21D;59066;54.782;32.024;2023-06-26T12:25:25;22.52;53.04
43772;HTU21D;59066;54.782;32.024;2023-06-26T12:27:53;22.34;53.65
43772;HTU21D;59066;54.782;32.024;2023-06-26T12:30:20;22.27;54.81
43772;HTU21D;59066;54.782;32.024;2023-06-26T12:32:48;22.21;54.46
43772;HTU21D;59066;54.782;32.024;2023-06-26T12:35:15;22.06;54.87
43772;HTU21D;59066;54.782;32.024;2023-06-26T12:37:43;21.91;55.33
43772;HTU21D;59066;54.782;32.024;2023-06-26T12:40:17;22.04;55.61
43772;HTU21D;59066;54.782;32.024;2023-06-26T12:42:52;22.17;55.32
43772;HTU21D;59066;54.782;32.024;2023-06-26T12:45:20;21.85;56.29
43772;HTU21D;59066;54.782;32.024;2023-06-26T12:47:50;21.59;57.38
43772;HTU21D;59066;54.782;32.024;2023-06-26T12:50:18;21.55;57.74
43772;HTU21D;59066;54.782;32.024;2023-06-26T12:52:45;21.46;58.04
43772;HTU21D;59066;54.782;32.024;2023-06-26T12:55:12;21.55;57.93
43772;HTU21D;59066;54.782;32.024;2023-06-26T12:57:40;21.47;58.34
43772;HTU21D;59066;54.782;32.024;2023-06-26T13:00:07;21.25;58.53
43772;HTU21D;59066;54.782;32.024;2023-06-26T13:02:37;21.29;58.07
43772;HTU21D;59066;54.782;32.024;2023-06-26T13:05:05;21.11;58.43
43772;HTU21D;59066;54.782;32.024;2023-06-26T13:07:32;21.20;58.46
43772;HTU21D;59066;54.782;32.024;2023-06-26T13:10:00;21.17;58.38
43772;HTU21D;59066;54.782;32.024;2023-06-26T13:12:27;21.34;58.22
43772;HTU21D;59066;54.782;32.024;2023-06-26T13:14:54;21.58;58.20
43772;HTU21D;59066;54.782;32.024;2023-06-26T13:17:22;21.60;58.93
43772;HTU21D;59066;54.782;32.024;2023-06-26T13:19:49;21.55;60.11
43772;HTU21D;59066;54.782;32.024;2023-06-26T13:22:17;21.29;61.60
43772;HTU21D;59066;54.782;32.024;2023-06-26T13:24:45;20.96;63.82
43772;HTU21D;59066;54.782;32.024;2023-06-26T13:27:16;20.69;66.13
43772;HTU21D;59066;54.782;32.024;2023-06-26T13:29:43;20.40;67.12
43772;HTU21D;59066;54.782;32.024;2023-06-26T13:32:10;20.39;68.01
43772;HTU21D;59066;54.782;32.024;2023-06-26T13:34:38;20.28;70.18
43772;HTU21D;59066;54.782;32.024;2023-06-26T13:37:05;19.87;73.15
43772;HTU21D;59066;54.782;32.024;2023-06-26T13:39:33;19.36;72.18
43772;HTU21D;59066;54.782;32.024;2023-06-26T13:42:00;18.70;72.32
43772;HTU21D;59066;54.782;32.024;2023-06-26T13:44:28;18.07;73.57
43772;HTU21D;59066;54.782;32.024;2023-06-26T13:47:04;17.18;75.29
43772;HTU21D;59066;54.782;32.024;2023-06-26T13:49:32;16.70;77.54
43772;HTU21D;59066;54.782;32.024;2023-06-26T13:51:59;16.39;80.27
43772;HTU21D;59066;54.782;32.024;2023-06-26T13:54:27;16.22;82.20
43772;HTU21D;59066;54.782;32.024;2023-06-26T13:56:54;16.13;83.51
43772;HTU21D;59066;54.782;32.024;2023-06-26T13:59:25;15.90;84.69
43772;HTU21D;59066;54.782;32.024;2023-06-26T14:01:52;15.77;86.35
43772;HTU21D;59066;54.782;32.024;2023-06-26T14:04:20;15.80;87.21
43772;HTU21D;59066;54.782;32.024;2023-06-26T14:06:48;15.72;88.33
43772;HTU21D;59066;54.782;32.024;2023-06-26T14:09:16;15.74;88.41
43772;HTU21D;59066;54.782;32.024;2023-06-26T14:11:43;15.68;88.92
43772;HTU21D;59066;54.782;32.024;2023-06-26T14:14:11;15.66;90.30
43772;HTU21D;59066;54.782;32.024;2023-06-26T14:16:38;15.59;90.08
43772;HTU21D;59066;54.782;32.024;2023-06-26T14:19:07;15.61;90.70
43772;HTU21D;59066;54.782;32.024;2023-06-26T14:21:34;15.66;91.29
43772;HTU21D;59066;54.782;32.024;2023-06-26T14:24:02;15.72;91.76
43772;HTU21D;59066;54.782;32.024;2023-06-26T14:26:29;15.75;92.34
43772;HTU21D;59066;54.782;32.024;2023-06-26T14:28:57;15.75;92.48
43772;HTU21D;59066;54.782;32.024;2023-06-26T14:31:25;15.84;93.04
43772;HTU21D;59066;54.782;32.024;2023-06-26T14:33:53;15.90;92.38
43772;HTU21D;59066;54.782;32.024;2023-06-26T14:36:20;15.77;92.44
43772;HTU21D;59066;54.782;32.024;2023-06-26T14:38:48;15.80;93.40
43772;HTU21D;59066;54.782;32.024;2023-06-26T14:41:15;15.90;93.31
43772;HTU21D;59066;54.782;32.024;2023-06-26T14:43:43;15.92;93.18
43772;HTU21D;59066;54.782;32.024;2023-06-26T14:46:10;15.92;93.11
43772;HTU21D;59066;54.782;32.024;2023-06-26T14:48:38;15.98;93.46
43772;HTU21D;59066;54.782;32.024;2023-06-26T14:51:05;16.07;94.01
43772;HTU21D;59066;54.782;32.024;2023-06-26T14:53:32;16.15;93.98
43772;HTU21D;59066;54.782;32.024;2023-06-26T14:56:00;16.21;94.05
43772;HTU21D;59066;54.782;32.024;2023-06-26T14:58:28;16.21;94.42
43772;HTU21D;59066;54.782;32.024;2023-06-26T15:00:55;16.35;94.64
43772;HTU21D;59066;54.782;32.024;2023-06-26T15:03:24;16.46;94.75
43772;HTU21D;59066;54.782;32.024;2023-06-26T15:05:51;16.49;93.80
43772;HTU21D;59066;54.782;32.024;2023-06-26T15:08:19;16.40;94.14
43772;HTU21D;59066;54.782;32.024;2023-06-26T15:10:46;16.24;93.04
43772;HTU21D;59066;54.782;32.024;2023-06-26T15:13:14;16.02;93.30
43772;HTU21D;59066;54.782;32.024;2023-06-26T15:15:41;15.99;93.97
43772;HTU21D;59066;54.782;32.024;2023-06-26T15:18:08;15.95;93.74
43772;HTU21D;59066;54.782;32.024;2023-06-26T15:20:36;16.01;93.75
43772;HTU21D;59066;54.782;32.024;2023-06-26T15:23:04;16.10;94.52